createdAt,value
2018-03-19T00:00:43.032Z,5.90
2018-03-19T00:03:10.098Z,5.63
2018-03-19T00:05:37.170Z,7.93
2018-03-19T00:08:03.481Z,5.30
2018-03-19T00:10:29.791Z,5.60
2018-03-19T00:12:56.821Z,6.37
2018-03-19T00:15:23.143Z,5.10
2018-03-19T00:17:49.554Z,5.00
2018-03-19T00:20:15.847Z,5.93
2018-03-19T00:22:42.877Z,6.27
2018-03-19T00:25:09.187Z,5.87
2018-03-19T00:27:35.451Z,5.47
2018-03-19T00:30:02.484Z,6.83
2018-03-19T00:32:28.784Z,5.20
2018-03-19T00:34:55.076Z,6.77
2018-03-19T00:37:21.392Z,6.27
2018-03-19T00:39:48.416Z,6.13
2018-03-19T00:42:14.716Z,7.50
2018-03-19T00:44:41.780Z,6.13
2018-03-19T00:47:08.801Z,6.23
2018-03-19T00:49:35.100Z,5.57
2018-03-19T00:52:01.423Z,5.70
2018-03-19T00:54:28.483Z,5.80
2018-03-19T00:56:54.804Z,5.60
2018-03-19T00:59:21.830Z,6.70
2018-03-19T01:01:48.086Z,5.87
2018-03-19T01:04:15.123Z,7.37
2018-03-19T01:06:42.208Z,6.50
2018-03-19T01:09:08.500Z,6.30
2018-03-19T01:11:35.534Z,6.30
2018-03-19T01:14:01.836Z,6.10
2018-03-19T01:16:28.154Z,6.70
2018-03-19T01:18:54.444Z,7.57
2018-03-19T01:21:21.488Z,6.07
2018-03-19T01:23:48.534Z,7.33
2018-03-19T01:26:15.602Z,5.37
2018-03-19T01:28:41.912Z,6.57
2018-03-19T01:31:08.959Z,6.60
2018-03-19T01:33:36.019Z,6.23
2018-03-19T01:36:03.095Z,7.30
2018-03-19T01:38:29.410Z,6.60
2018-03-19T01:40:55.711Z,6.87
2018-03-19T01:43:22.043Z,7.20
2018-03-19T01:45:48.333Z,7.17
2018-03-19T01:48:14.619Z,6.23
2018-03-19T01:50:41.667Z,6.37
2018-03-19T01:53:08.708Z,7.40
2018-03-19T01:55:35.750Z,5.33
2018-03-19T01:58:02.798Z,6.50
2018-03-19T02:00:29.854Z,6.90
2018-03-19T02:02:56.925Z,6.60
2018-03-19T02:05:23.242Z,5.40
2018-03-19T02:07:50.299Z,6.10
2018-03-19T02:10:16.600Z,6.53
2018-03-19T02:12:42.953Z,7.30
2018-03-19T02:15:09.969Z,6.93
2018-03-19T02:17:36.271Z,5.97
2018-03-19T02:20:02.631Z,7.90
2018-03-19T02:22:37.318Z,7.40
2018-03-19T02:25:03.786Z,6.20
2018-03-19T02:27:30.150Z,6.63
2018-03-19T02:29:57.179Z,7.37
2018-03-19T02:32:23.561Z,6.00
2018-03-19T02:34:49.917Z,7.83
2018-03-19T02:37:16.205Z,6.47
2018-03-19T02:39:42.559Z,8.80
2018-03-19T02:42:08.891Z,7.13
2018-03-19T02:44:35.184Z,7.60
2018-03-19T02:47:02.272Z,8.00
2018-03-19T02:49:28.557Z,6.23
2018-03-19T02:51:54.920Z,7.63
2018-03-19T02:54:21.938Z,4.83
2018-03-19T02:56:48.988Z,6.87
2018-03-19T02:59:16.071Z,7.03
2018-03-19T03:01:42.410Z,6.30
2018-03-19T03:04:08.673Z,6.00
2018-03-19T03:06:34.939Z,7.07
2018-03-19T03:09:01.236Z,5.10
2018-03-19T03:11:27.562Z,5.83
2018-03-19T03:13:53.858Z,5.90
2018-03-19T03:16:20.184Z,5.67
2018-03-19T03:18:46.486Z,6.20
2018-03-19T03:21:13.570Z,6.10
2018-03-19T03:23:39.875Z,6.77
2018-03-19T03:26:06.187Z,6.33
2018-03-19T03:28:33.233Z,5.93
2018-03-19T03:30:59.596Z,6.50
2018-03-19T03:33:25.942Z,5.40
2018-03-19T03:35:52.227Z,6.17
2018-03-19T03:38:19.270Z,6.73
2018-03-19T03:40:45.560Z,8.03
2018-03-19T03:43:11.860Z,6.00
2018-03-19T03:45:38.172Z,5.63
2018-03-19T03:48:05.187Z,5.60
2018-03-19T03:50:32.232Z,6.47
2018-03-19T03:52:58.504Z,5.40
2018-03-19T03:55:25.520Z,5.37
2018-03-19T03:57:51.820Z,5.90
2018-03-19T04:00:18.142Z,6.90
2018-03-19T04:02:45.057Z,7.70
2018-03-19T04:05:19.050Z,5.50
2018-03-19T04:07:45.340Z,6.33
2018-03-19T04:10:11.602Z,5.50
2018-03-19T04:12:37.918Z,5.43
2018-03-19T04:15:04.191Z,7.33
2018-03-19T04:17:31.256Z,6.77
2018-03-19T04:19:57.570Z,5.90
2018-03-19T04:22:24.619Z,5.80
2018-03-19T04:24:50.940Z,6.10
2018-03-19T04:27:17.973Z,7.00
2018-03-19T04:29:44.301Z,7.10
2018-03-19T04:32:10.580Z,6.83
2018-03-19T04:34:36.924Z,6.23
2018-03-19T04:37:03.197Z,6.40
2018-03-19T04:39:29.525Z,5.33
2018-03-19T04:41:55.940Z,6.37
2018-03-19T04:44:22.231Z,5.80
2018-03-19T04:46:48.511Z,5.33
2018-03-19T04:49:14.889Z,6.27
2018-03-19T04:51:41.215Z,8.00
2018-03-19T04:54:07.506Z,6.40
2018-03-19T04:56:33.836Z,5.57
2018-03-19T04:59:00.180Z,6.57
2018-03-19T05:01:27.204Z,6.20
2018-03-19T05:03:53.596Z,6.37
2018-03-19T05:06:20.018Z,6.57
2018-03-19T05:08:47.059Z,6.03
2018-03-19T05:11:14.175Z,6.20
2018-03-19T05:13:40.547Z,6.23
2018-03-19T05:16:07.607Z,6.33
2018-03-19T05:18:33.934Z,5.93
2018-03-19T05:21:00.261Z,6.57
2018-03-19T05:23:26.572Z,6.87
2018-03-19T05:25:53.750Z,5.20
2018-03-19T05:28:20.079Z,6.33
2018-03-19T05:30:46.387Z,6.07
2018-03-19T05:33:13.543Z,6.17
2018-03-19T05:35:39.834Z,6.00
2018-03-19T05:38:06.225Z,5.93
2018-03-19T05:40:32.553Z,6.13
2018-03-19T05:42:58.967Z,6.37
2018-03-19T05:45:26.092Z,5.43
2018-03-19T05:47:52.462Z,4.70
2018-03-19T05:50:18.842Z,6.70
2018-03-19T05:52:45.192Z,6.60
2018-03-19T05:55:36.563Z,6.57
2018-03-19T05:58:02.943Z,6.97
2018-03-19T06:00:29.330Z,6.97
2018-03-19T06:02:55.643Z,6.80
2018-03-19T06:05:21.992Z,7.40
2018-03-19T06:07:48.363Z,6.33
2018-03-19T06:10:14.712Z,6.30
2018-03-19T06:12:41.016Z,7.40
2018-03-19T06:15:07.350Z,7.30
2018-03-19T06:17:33.651Z,5.60
2018-03-19T06:19:59.977Z,6.67
2018-03-19T06:22:26.316Z,6.80
2018-03-19T06:24:52.605Z,7.97
2018-03-19T06:27:18.860Z,6.87
2018-03-19T06:29:45.117Z,7.17
2018-03-19T06:32:11.461Z,7.53
2018-03-19T06:34:37.801Z,7.80
2018-03-19T06:37:04.158Z,7.90
2018-03-19T06:39:31.235Z,7.33
2018-03-19T06:41:57.615Z,7.53
2018-03-19T06:44:23.936Z,7.70
2018-03-19T06:46:50.258Z,6.77
2018-03-19T06:49:16.608Z,8.10
2018-03-19T06:51:42.978Z,8.73
2018-03-19T06:54:09.298Z,8.23
2018-03-19T06:56:36.362Z,8.10
2018-03-19T06:59:02.704Z,8.63
2018-03-19T07:01:29.044Z,8.40
2018-03-19T07:03:55.422Z,7.83
2018-03-19T07:06:21.789Z,9.17
2018-03-19T07:08:48.096Z,7.50
2018-03-19T07:11:14.412Z,8.40
2018-03-19T07:13:41.580Z,8.27
2018-03-19T07:16:08.625Z,8.87
2018-03-19T07:18:34.955Z,9.50
2018-03-19T07:21:02.001Z,7.77
2018-03-19T07:23:28.332Z,10.20
2018-03-19T07:25:54.665Z,8.83
2018-03-19T07:28:21.751Z,8.90
2018-03-19T07:30:48.045Z,10.80
2018-03-19T07:33:14.336Z,8.17
2018-03-19T07:35:40.664Z,7.77
2018-03-19T07:38:07.002Z,9.50
2018-03-19T07:40:33.348Z,6.90
2018-03-19T07:42:59.708Z,9.13
2018-03-19T07:45:26.782Z,7.80
2018-03-19T07:47:53.088Z,7.87
2018-03-19T07:50:19.459Z,8.87
2018-03-19T07:52:45.752Z,7.27
2018-03-19T07:55:12.823Z,8.40
2018-03-19T07:57:39.152Z,8.43
2018-03-19T08:00:05.505Z,8.47
2018-03-19T08:02:31.841Z,9.07
2018-03-19T08:04:58.166Z,9.10
2018-03-19T08:07:24.487Z,9.77
2018-03-19T08:09:50.819Z,8.13
2018-03-19T08:12:17.193Z,8.33
2018-03-19T08:14:43.536Z,7.97
2018-03-19T08:17:09.849Z,7.40
2018-03-19T08:19:36.165Z,7.40
2018-03-19T08:22:02.492Z,7.80
2018-03-19T08:24:28.820Z,6.77
2018-03-19T08:27:05.193Z,7.53
2018-03-19T08:29:31.505Z,8.50
2018-03-19T08:31:57.825Z,7.10
2018-03-19T08:34:24.170Z,7.20
2018-03-19T08:36:50.491Z,7.33
2018-03-19T08:39:16.820Z,6.90
2018-03-19T08:41:43.177Z,6.93
2018-03-19T08:44:09.447Z,7.50
2018-03-19T08:46:35.801Z,7.80
2018-03-19T08:49:02.178Z,6.43
2018-03-19T08:51:28.507Z,7.20
2018-03-19T08:53:54.827Z,7.93
2018-03-19T08:56:21.128Z,7.77
2018-03-19T08:58:47.450Z,6.23
2018-03-19T09:01:14.500Z,6.73
2018-03-19T09:03:41.538Z,6.60
2018-03-19T09:06:08.617Z,5.50
2018-03-19T09:08:34.896Z,5.37
2018-03-19T09:11:01.221Z,5.23
2018-03-19T09:13:27.514Z,6.33
2018-03-19T09:15:53.781Z,6.17
2018-03-19T09:18:20.167Z,6.40
2018-03-19T09:20:46.478Z,6.87
2018-03-19T09:23:12.799Z,6.40
2018-03-19T09:25:39.137Z,6.63
2018-03-19T09:28:06.183Z,5.23
2018-03-19T09:30:33.255Z,6.47
2018-03-19T09:32:59.552Z,7.70
2018-03-19T09:35:25.930Z,5.97
2018-03-19T09:37:52.261Z,6.67
2018-03-19T09:40:18.581Z,6.20
2018-03-19T09:42:44.911Z,6.93
2018-03-19T09:45:11.214Z,7.20
2018-03-19T09:47:37.484Z,7.00
2018-03-19T09:50:03.828Z,5.80
2018-03-19T09:52:30.098Z,6.20
2018-03-19T09:54:56.380Z,6.90
2018-03-19T09:57:22.650Z,6.30
2018-03-19T09:59:48.964Z,5.63
2018-03-19T10:02:15.268Z,6.70
2018-03-19T10:04:41.607Z,5.60
2018-03-19T10:07:07.920Z,5.70
2018-03-19T10:09:34.224Z,6.20
2018-03-19T10:12:01.312Z,6.27
2018-03-19T10:14:27.641Z,6.10
2018-03-19T10:16:53.893Z,6.83
2018-03-19T10:19:20.165Z,5.60
2018-03-19T10:21:47.339Z,6.30
2018-03-19T10:24:13.722Z,6.23
2018-03-19T10:26:40.067Z,6.10
2018-03-19T10:29:06.379Z,6.30
2018-03-19T10:31:32.692Z,7.43
2018-03-19T10:33:59.024Z,5.97
2018-03-19T10:36:25.355Z,6.03
2018-03-19T10:38:51.639Z,6.00
2018-03-19T10:41:18.724Z,6.67
2018-03-19T10:43:45.126Z,6.70
2018-03-19T10:46:12.202Z,5.90
2018-03-19T10:48:38.500Z,6.17
2018-03-19T10:51:05.543Z,6.03
2018-03-19T10:53:32.690Z,6.33
2018-03-19T10:55:59.821Z,5.83
2018-03-19T10:58:33.188Z,6.60
2018-03-19T11:01:05.561Z,6.10
2018-03-19T11:03:31.859Z,5.67
2018-03-19T11:06:04.308Z,7.80
2018-03-19T11:08:33.509Z,5.90
2018-03-19T11:10:59.840Z,5.43
2018-03-19T11:13:26.944Z,5.30
2018-03-19T11:15:54.054Z,4.10
2018-03-19T11:18:21.097Z,5.77
2018-03-19T11:20:48.123Z,5.10
2018-03-19T11:23:14.383Z,5.80
2018-03-19T11:25:41.464Z,5.17
2018-03-19T11:28:07.779Z,5.37
2018-03-19T11:30:34.101Z,6.30
2018-03-19T11:33:00.516Z,5.67
2018-03-19T11:35:27.658Z,6.17
2018-03-19T11:37:54.696Z,5.90
2018-03-19T11:40:21.033Z,4.83
2018-03-19T11:42:47.352Z,5.27
2018-03-19T11:45:13.806Z,5.90
2018-03-19T11:47:40.971Z,6.60
2018-03-19T11:50:07.315Z,6.93
2018-03-19T11:52:33.638Z,6.80
2018-03-19T11:54:59.970Z,7.50
2018-03-19T11:57:26.313Z,7.40
2018-03-19T11:59:52.708Z,7.00
2018-03-19T12:02:19.757Z,7.43
2018-03-19T12:04:46.039Z,7.37
2018-03-19T12:07:12.358Z,7.80
2018-03-19T12:09:38.694Z,8.60
2018-03-19T12:12:04.962Z,7.93
2018-03-19T12:14:31.340Z,7.37
2018-03-19T12:16:57.724Z,6.67
2018-03-19T12:19:24.068Z,7.20
2018-03-19T12:21:50.419Z,6.50
2018-03-19T12:24:17.492Z,6.90
2018-03-19T12:26:43.868Z,7.07
2018-03-19T12:29:10.188Z,7.90
2018-03-19T12:31:36.537Z,6.27
2018-03-19T12:34:02.882Z,6.97
2018-03-19T12:36:30.026Z,6.43
2018-03-19T12:38:56.275Z,5.90
2018-03-19T12:41:23.616Z,5.50
2018-03-19T12:43:50.657Z,6.10
2018-03-19T12:46:16.953Z,5.60
2018-03-19T12:48:43.259Z,5.80
2018-03-19T12:51:09.551Z,6.43
2018-03-19T12:53:35.961Z,5.37
2018-03-19T12:56:03.043Z,6.27
2018-03-19T12:58:30.171Z,5.90
2018-03-19T13:00:56.521Z,6.53
2018-03-19T13:03:23.046Z,5.80
2018-03-19T13:05:49.991Z,6.27
2018-03-19T13:08:17.192Z,5.07
2018-03-19T13:10:43.506Z,5.57
2018-03-19T13:13:09.839Z,6.23
2018-03-19T13:15:36.163Z,5.90
2018-03-19T13:18:02.504Z,5.70
2018-03-19T13:20:29.067Z,6.30
2018-03-19T13:22:55.447Z,5.50
2018-03-19T13:25:22.510Z,6.40
2018-03-19T13:27:49.572Z,5.33
2018-03-19T13:30:15.931Z,5.60
2018-03-19T13:32:42.232Z,6.47
2018-03-19T13:35:08.698Z,8.07
2018-03-19T13:37:35.157Z,7.90
2018-03-19T13:40:01.539Z,7.63
2018-03-19T13:42:28.616Z,8.80
2018-03-19T13:44:54.981Z,9.57
2018-03-19T13:47:21.301Z,8.50
2018-03-19T13:49:47.629Z,7.80
2018-03-19T13:52:13.932Z,7.47
2018-03-19T13:54:40.276Z,7.90
2018-03-19T13:57:06.603Z,7.87
2018-03-19T13:59:32.895Z,7.37
2018-03-19T14:01:59.207Z,6.83
2018-03-19T14:04:25.507Z,6.97
2018-03-19T14:06:51.825Z,7.47
2018-03-19T14:09:18.174Z,6.97
2018-03-19T14:11:44.449Z,8.30
2018-03-19T14:14:10.737Z,7.13
2018-03-19T14:16:37.016Z,6.83
2018-03-19T14:19:03.290Z,6.93
2018-03-19T14:21:29.627Z,6.83
2018-03-19T14:23:55.904Z,6.63
2018-03-19T14:26:22.267Z,6.57
2018-03-19T14:28:48.563Z,6.53
2018-03-19T14:31:15.632Z,6.63
2018-03-19T14:33:41.961Z,6.43
2018-03-19T14:36:08.293Z,5.93
2018-03-19T14:38:34.649Z,6.97
2018-03-19T14:41:01.080Z,5.97
2018-03-19T14:43:27.389Z,6.40
2018-03-19T14:45:53.968Z,5.90
2018-03-19T14:48:20.304Z,8.20
2018-03-19T14:50:46.726Z,7.10
2018-03-19T14:53:13.758Z,6.13
2018-03-19T14:55:40.066Z,6.97
2018-03-19T14:58:06.491Z,7.00
2018-03-19T15:00:32.811Z,6.67
2018-03-19T15:02:59.908Z,6.60
2018-03-19T15:05:26.306Z,6.50
2018-03-19T15:07:52.647Z,6.70
2018-03-19T15:10:19.077Z,7.07
2018-03-19T15:12:45.442Z,6.73
2018-03-19T15:15:11.744Z,5.20
2018-03-19T15:17:38.064Z,6.43
2018-03-19T15:20:04.816Z,5.97
2018-03-19T15:22:31.141Z,6.00
2018-03-19T15:24:57.460Z,6.13
2018-03-19T15:27:23.782Z,5.30
2018-03-19T15:29:50.803Z,5.67
2018-03-19T15:32:17.085Z,5.90
2018-03-19T15:34:43.416Z,4.60
2018-03-19T15:37:09.749Z,5.33
2018-03-19T15:39:36.069Z,5.40
2018-03-19T15:42:02.397Z,5.33
2018-03-19T15:44:28.772Z,5.30
2018-03-19T15:46:55.102Z,5.03
2018-03-19T15:49:21.428Z,5.10
2018-03-19T15:51:47.757Z,5.47
2018-03-19T15:54:14.093Z,5.40
2018-03-19T15:56:41.179Z,5.10
2018-03-19T15:59:07.500Z,4.50
2018-03-19T16:01:33.893Z,4.80
2018-03-19T16:04:00.232Z,5.23
2018-03-19T16:06:26.555Z,4.33
2018-03-19T16:08:52.892Z,4.67
2018-03-19T16:11:19.220Z,4.80
2018-03-19T16:13:45.620Z,4.80
2018-03-19T16:16:11.947Z,4.80
2018-03-19T16:18:44.838Z,3.93
2018-03-19T16:21:11.187Z,5.37
2018-03-19T16:23:37.565Z,4.50
2018-03-19T16:26:03.928Z,3.73
2018-03-19T16:28:30.994Z,5.13
2018-03-19T16:30:57.310Z,4.37
2018-03-19T16:33:23.665Z,4.30
2018-03-19T16:35:50.959Z,4.07
2018-03-19T16:38:17.299Z,3.83
2018-03-19T16:40:43.801Z,4.03
2018-03-19T16:43:10.136Z,4.23
2018-03-19T16:45:36.449Z,4.10
2018-03-19T16:48:02.994Z,4.37
2018-03-19T16:50:29.391Z,3.40
2018-03-19T16:52:56.449Z,4.17
2018-03-19T16:55:22.762Z,4.20
2018-03-19T16:57:49.884Z,4.80
2018-03-19T17:00:16.186Z,5.40
2018-03-19T17:02:42.572Z,4.57
2018-03-19T17:05:09.718Z,4.97
2018-03-19T17:07:36.835Z,4.67
2018-03-19T17:10:03.204Z,3.97
2018-03-19T17:12:29.583Z,5.03
2018-03-19T17:14:55.891Z,5.13
2018-03-19T17:17:22.232Z,6.90
2018-03-19T17:19:48.628Z,4.80
2018-03-19T17:22:15.813Z,5.10
2018-03-19T17:24:42.151Z,3.70
2018-03-19T17:27:08.509Z,8.83
2018-03-19T17:29:35.709Z,14.57
2018-03-19T17:32:02.063Z,19.47
2018-03-19T17:34:28.437Z,6.47
2018-03-19T17:36:54.913Z,5.20
2018-03-19T17:39:21.249Z,7.37
2018-03-19T17:41:48.370Z,4.80
2018-03-19T17:44:14.652Z,5.43
2018-03-19T17:46:40.977Z,4.57
2018-03-19T17:49:08.337Z,5.20
2018-03-19T17:51:34.738Z,4.47
2018-03-19T17:54:01.784Z,5.07
2018-03-19T17:56:28.883Z,4.63
2018-03-19T17:58:55.206Z,4.53
2018-03-19T18:01:21.508Z,5.40
2018-03-19T18:03:47.890Z,4.63
2018-03-19T18:06:14.196Z,4.97
2018-03-19T18:08:40.517Z,5.60
2018-03-19T18:11:06.896Z,4.30
2018-03-19T18:13:33.222Z,5.30
2018-03-19T18:15:59.559Z,8.87
2018-03-19T18:18:25.932Z,4.30
2018-03-19T18:20:52.263Z,4.87
2018-03-19T18:23:18.590Z,4.50
2018-03-19T18:25:44.955Z,6.23
2018-03-19T18:28:11.257Z,5.60
2018-03-19T18:30:37.609Z,5.33
2018-03-19T18:33:03.943Z,6.63
2018-03-19T18:35:30.309Z,5.60
2018-03-19T18:37:56.673Z,4.23
2018-03-19T18:40:23.753Z,4.37
2018-03-19T18:42:51.572Z,4.10
2018-03-19T18:48:06.417Z,5.00
2018-03-19T18:50:32.713Z,4.50
2018-03-19T18:52:59.001Z,4.70
2018-03-19T18:55:25.333Z,4.37
2018-03-19T18:57:51.731Z,4.00
2018-03-19T19:00:18.154Z,4.43
2018-03-19T19:02:44.550Z,4.90
2018-03-19T19:05:11.712Z,4.97
2018-03-19T19:07:38.162Z,4.30
2018-03-19T19:10:04.462Z,4.23
2018-03-19T19:12:31.552Z,5.33
2018-03-19T19:14:57.860Z,5.30
2018-03-19T19:17:24.832Z,4.43
2018-03-19T19:19:51.272Z,4.00
2018-03-19T19:22:17.763Z,5.03
2018-03-19T19:24:44.221Z,5.60
2018-03-19T19:27:10.607Z,4.00
2018-03-19T19:29:36.998Z,4.67
2018-03-19T19:32:03.366Z,5.20
2018-03-19T19:34:29.887Z,5.07
2018-03-19T19:36:57.200Z,4.50
2018-03-19T19:39:23.763Z,5.23
2018-03-19T19:41:50.136Z,7.70
2018-03-19T19:44:16.652Z,7.57
2018-03-19T19:46:43.053Z,8.23
2018-03-19T19:49:09.366Z,7.60
2018-03-19T19:51:35.766Z,8.60
2018-03-19T19:54:02.222Z,5.83
2018-03-19T19:56:29.370Z,5.93
2018-03-19T19:58:56.525Z,4.90
2018-03-19T20:01:22.981Z,5.67
2018-03-19T20:03:49.276Z,5.27
2018-03-19T20:06:15.671Z,6.20
2018-03-19T20:08:41.985Z,4.97
2018-03-19T20:11:15.142Z,7.00
2018-03-19T20:13:41.569Z,5.67
2018-03-19T20:16:07.978Z,5.47
2018-03-19T20:18:34.311Z,6.67
2018-03-19T20:21:00.650Z,6.00
2018-03-19T20:23:27.813Z,5.50
2018-03-19T20:25:54.209Z,6.10
2018-03-19T20:28:20.636Z,5.93
2018-03-19T20:30:47.008Z,6.10
2018-03-19T20:33:13.374Z,6.17
2018-03-19T20:35:39.716Z,5.23
2018-03-19T20:38:06.228Z,6.67
2018-03-19T20:40:32.905Z,6.43
2018-03-19T20:43:00.126Z,6.70
2018-03-19T20:45:26.461Z,5.77
2018-03-19T20:47:52.804Z,5.93
2018-03-19T20:50:19.197Z,6.80
2018-03-19T20:52:46.299Z,6.57
2018-03-19T20:55:12.643Z,8.00
2018-03-19T20:57:38.967Z,7.03
2018-03-19T21:00:05.309Z,7.90
2018-03-19T21:02:31.652Z,9.63
2018-03-19T21:04:58.022Z,8.70
2018-03-19T21:07:24.416Z,7.40
2018-03-19T21:09:50.720Z,7.03
2018-03-19T21:12:17.079Z,7.20
2018-03-19T21:14:43.395Z,6.20
2018-03-19T21:17:09.756Z,8.70
2018-03-19T21:19:36.899Z,7.27
2018-03-19T21:22:03.232Z,7.53
2018-03-19T21:24:29.607Z,7.27
2018-03-19T21:26:55.893Z,7.03
2018-03-19T21:29:22.177Z,7.03
2018-03-19T21:31:48.584Z,6.00
2018-03-19T21:34:15.083Z,7.57
2018-03-19T21:36:41.381Z,7.47
2018-03-19T21:39:07.707Z,6.83
2018-03-19T21:41:34.067Z,6.70
2018-03-19T21:44:00.334Z,6.80
2018-03-19T21:46:27.511Z,7.70
2018-03-19T21:48:53.876Z,8.03
2018-03-19T21:51:20.230Z,8.97
2018-03-19T21:53:46.555Z,6.63
2018-03-19T21:56:12.952Z,7.10
2018-03-19T21:58:39.278Z,7.73
2018-03-19T22:01:05.649Z,8.90
2018-03-19T22:03:31.996Z,6.87
2018-03-19T22:05:59.089Z,7.37
2018-03-19T22:08:25.381Z,7.20
2018-03-19T22:10:52.490Z,7.03
2018-03-19T22:13:18.803Z,7.03
2018-03-19T22:15:45.160Z,7.40
2018-03-19T22:18:12.241Z,6.57
2018-03-19T22:20:39.302Z,5.80
2018-03-19T22:23:06.372Z,7.63
2018-03-19T22:25:32.751Z,6.20
2018-03-19T22:27:59.064Z,7.43
2018-03-19T22:30:25.368Z,6.70
2018-03-19T22:32:51.675Z,7.17
2018-03-19T22:35:18.008Z,6.90
2018-03-19T22:37:44.270Z,5.70
2018-03-19T22:40:10.687Z,6.77
2018-03-19T22:42:37.000Z,7.00
2018-03-19T22:45:04.086Z,7.83
2018-03-19T22:47:30.392Z,6.97
2018-03-19T22:49:56.739Z,7.20
2018-03-19T22:52:23.069Z,8.67
2018-03-19T22:54:49.417Z,7.50
2018-03-19T22:57:15.737Z,7.37
2018-03-19T22:59:42.052Z,7.90
2018-03-19T23:02:08.363Z,8.47
2018-03-19T23:04:54.148Z,8.20
2018-03-19T23:07:21.216Z,8.20
2018-03-19T23:09:47.527Z,8.10
2018-03-19T23:12:13.815Z,8.90
2018-03-19T23:14:40.127Z,9.30
2018-03-19T23:17:06.440Z,8.67
2018-03-19T23:19:32.736Z,7.10
2018-03-19T23:21:59.036Z,8.90
2018-03-19T23:24:25.355Z,7.73
2018-03-19T23:26:51.654Z,9.50
2018-03-19T23:29:17.958Z,7.20
2018-03-19T23:31:45.025Z,8.40
2018-03-19T23:34:12.109Z,7.63
2018-03-19T23:36:38.440Z,9.33
2018-03-19T23:39:04.734Z,7.60
2018-03-19T23:41:31.805Z,7.67
2018-03-19T23:43:58.123Z,8.77
2018-03-19T23:46:24.492Z,9.90
2018-03-19T23:48:50.806Z,8.53
2018-03-19T23:51:18.234Z,7.90
2018-03-19T23:53:45.251Z,7.60
2018-03-19T23:56:11.526Z,9.30
2018-03-19T23:58:37.819Z,9.17
